sensor_id;sensor_type;location;lat;lon;timestamp;P1;durP1;ratioP1;P2;durP2;ratioP2
52124;SDS011;38119;52.710;6.398;2024-02-21T00:00:47;17.38;;;5.80;;
52124;SDS011;38119;52.710;6.398;2024-02-21T00:03:13;17.55;;;5.82;;
52124;SDS011;38119;52.710;6.398;2024-02-21T00:05:38;12.98;;;5.28;;
52124;SDS011;38119;52.710;6.398;2024-02-21T00:08:04;15.13;;;5.40;;
52124;SDS011;38119;52.710;6.398;2024-02-21T00:10:30;19.00;;;5.47;;
52124;SDS011;38119;52.710;6.398;2024-02-21T00:13:00;12.70;;;5.15;;
52124;SDS011;38119;52.710;6.398;2024-02-21T00:15:26;15.75;;;5.60;;
52124;SDS011;38119;52.710;6.398;2024-02-21T00:17:51;14.52;;;5.32;;
52124;SDS011;38119;52.710;6.398;2024-02-21T00:20:17;14.68;;;5.35;;
52124;SDS011;38119;52.710;6.398;2024-02-21T00:22:44;17.17;;;5.65;;
52124;SDS011;38119;52.710;6.398;2024-02-21T00:25:09;15.93;;;5.90;;
52124;SDS011;38119;52.710;6.398;2024-02-21T00:27:35;14.32;;;5.07;;
52124;SDS011;38119;52.710;6.398;2024-02-21T00:30:01;17.60;;;5.65;;
52124;SDS011;38119;52.710;6.398;2024-02-21T00:32:27;13.95;;;5.25;;
52124;SDS011;38119;52.710;6.398;2024-02-21T00:34:53;14.88;;;5.18;;
52124;SDS011;38119;52.710;6.398;2024-02-21T00:37:19;13.98;;;4.80;;
52124;SDS011;38119;52.710;6.398;2024-02-21T00:39:44;19.17;;;5.05;;
52124;SDS011;38119;52.710;6.398;2024-02-21T00:42:10;16.33;;;5.07;;
52124;SDS011;38119;52.710;6.398;2024-02-21T00:44:35;15.32;;;5.38;;
52124;SDS011;38119;52.710;6.398;2024-02-21T00:47:01;19.77;;;5.22;;
52124;SDS011;38119;52.710;6.398;2024-02-21T00:49:27;19.48;;;5.75;;
52124;SDS011;38119;52.710;6.398;2024-02-21T00:51:52;16.30;;;5.20;;
52124;SDS011;38119;52.710;6.398;2024-02-21T00:54:18;11.63;;;4.82;;
52124;SDS011;38119;52.710;6.398;2024-02-21T00:56:44;12.27;;;4.93;;
52124;SDS011;38119;52.710;6.398;2024-02-21T00:59:09;14.07;;;5.20;;
52124;SDS011;38119;52.710;6.398;2024-02-21T01:01:35;11.48;;;4.70;;
52124;SDS011;38119;52.710;6.398;2024-02-21T01:04:01;16.95;;;4.35;;
52124;SDS011;38119;52.710;6.398;2024-02-21T01:06:26;18.55;;;5.13;;
52124;SDS011;38119;52.710;6.398;2024-02-21T01:08:52;18.65;;;5.18;;
52124;SDS011;38119;52.710;6.398;2024-02-21T01:11:18;18.95;;;4.35;;
52124;SDS011;38119;52.710;6.398;2024-02-21T01:13:43;20.40;;;5.07;;
52124;SDS011;38119;52.710;6.398;2024-02-21T01:16:09;14.15;;;5.00;;
52124;SDS011;38119;52.710;6.398;2024-02-21T01:18:38;23.90;;;5.38;;
52124;SDS011;38119;52.710;6.398;2024-02-21T01:21:04;19.48;;;5.50;;
52124;SDS011;38119;52.710;6.398;2024-02-21T01:23:36;18.50;;;5.60;;
52124;SDS011;38119;52.710;6.398;2024-02-21T01:26:02;14.20;;;4.88;;
52124;SDS011;38119;52.710;6.398;2024-02-21T01:28:28;17.13;;;5.18;;
52124;SDS011;38119;52.710;6.398;2024-02-21T01:30:55;23.52;;;5.85;;
52124;SDS011;38119;52.710;6.398;2024-02-21T01:33:21;17.10;;;5.85;;
52124;SDS011;38119;52.710;6.398;2024-02-21T01:35:47;19.73;;;5.53;;
52124;SDS011;38119;52.710;6.398;2024-02-21T01:38:12;22.27;;;5.68;;
52124;SDS011;38119;52.710;6.398;2024-02-21T01:40:38;23.48;;;6.47;;
52124;SDS011;38119;52.710;6.398;2024-02-21T01:43:14;16.05;;;5.80;;
52124;SDS011;38119;52.710;6.398;2024-02-21T01:45:41;27.30;;;6.78;;
52124;SDS011;38119;52.710;6.398;2024-02-21T01:48:07;23.92;;;6.60;;
52124;SDS011;38119;52.710;6.398;2024-02-21T01:50:32;20.63;;;7.00;;
52124;SDS011;38119;52.710;6.398;2024-02-21T01:52:58;23.48;;;6.13;;
52124;SDS011;38119;52.710;6.398;2024-02-21T01:55:25;20.90;;;6.53;;
52124;SDS011;38119;52.710;6.398;2024-02-21T01:57:50;28.25;;;6.72;;
52124;SDS011;38119;52.710;6.398;2024-02-21T02:00:16;17.40;;;5.85;;
52124;SDS011;38119;52.710;6.398;2024-02-21T02:02:43;23.65;;;6.15;;
52124;SDS011;38119;52.710;6.398;2024-02-21T02:05:10;28.52;;;6.63;;
52124;SDS011;38119;52.710;6.398;2024-02-21T02:07:37;27.88;;;6.38;;
52124;SDS011;38119;52.710;6.398;2024-02-21T02:10:02;25.83;;;7.32;;
52124;SDS011;38119;52.710;6.398;2024-02-21T02:12:28;19.48;;;6.35;;
52124;SDS011;38119;52.710;6.398;2024-02-21T02:14:58;21.92;;;6.88;;
52124;SDS011;38119;52.710;6.398;2024-02-21T02:17:29;22.88;;;6.65;;
52124;SDS011;38119;52.710;6.398;2024-02-21T02:19:55;26.30;;;7.18;;
52124;SDS011;38119;52.710;6.398;2024-02-21T02:22:22;28.08;;;7.40;;
52124;SDS011;38119;52.710;6.398;2024-02-21T02:24:50;23.17;;;7.78;;
52124;SDS011;38119;52.710;6.398;2024-02-21T02:27:16;24.80;;;7.85;;
52124;SDS011;38119;52.710;6.398;2024-02-21T02:29:42;30.65;;;8.27;;
52124;SDS011;38119;52.710;6.398;2024-02-21T02:32:07;27.48;;;7.90;;
52124;SDS011;38119;52.710;6.398;2024-02-21T02:34:33;27.77;;;8.38;;
52124;SDS011;38119;52.710;6.398;2024-02-21T02:36:59;24.98;;;7.72;;
52124;SDS011;38119;52.710;6.398;2024-02-21T02:39:25;25.55;;;8.68;;
52124;SDS011;38119;52.710;6.398;2024-02-21T02:41:50;34.67;;;8.73;;
52124;SDS011;38119;52.710;6.398;2024-02-21T02:44:16;29.23;;;8.68;;
52124;SDS011;38119;52.710;6.398;2024-02-21T02:46:42;27.20;;;8.68;;
52124;SDS011;38119;52.710;6.398;2024-02-21T02:49:07;30.90;;;8.75;;
52124;SDS011;38119;52.710;6.398;2024-02-21T02:51:33;32.10;;;9.48;;
52124;SDS011;38119;52.710;6.398;2024-02-21T02:53:59;28.98;;;8.23;;
52124;SDS011;38119;52.710;6.398;2024-02-21T02:56:25;28.83;;;9.15;;
52124;SDS011;38119;52.710;6.398;2024-02-21T02:58:51;28.70;;;8.55;;
52124;SDS011;38119;52.710;6.398;2024-02-21T03:01:16;29.60;;;8.88;;
52124;SDS011;38119;52.710;6.398;2024-02-21T03:03:42;26.50;;;9.15;;
52124;SDS011;38119;52.710;6.398;2024-02-21T03:06:07;37.55;;;9.20;;
52124;SDS011;38119;52.710;6.398;2024-02-21T03:08:33;27.20;;;8.77;;
52124;SDS011;38119;52.710;6.398;2024-02-21T03:10:59;29.00;;;8.13;;
52124;SDS011;38119;52.710;6.398;2024-02-21T03:13:25;37.75;;;8.95;;
52124;SDS011;38119;52.710;6.398;2024-02-21T03:15:51;34.45;;;8.15;;
52124;SDS011;38119;52.710;6.398;2024-02-21T03:18:16;22.27;;;8.10;;
52124;SDS011;38119;52.710;6.398;2024-02-21T03:20:42;37.53;;;9.23;;
52124;SDS011;38119;52.710;6.398;2024-02-21T03:23:07;29.10;;;8.52;;
52124;SDS011;38119;52.710;6.398;2024-02-21T03:25:33;27.20;;;8.23;;
52124;SDS011;38119;52.710;6.398;2024-02-21T03:27:59;28.10;;;7.93;;
52124;SDS011;38119;52.710;6.398;2024-02-21T03:30:24;28.75;;;8.20;;
52124;SDS011;38119;52.710;6.398;2024-02-21T03:32:50;30.55;;;8.90;;
52124;SDS011;38119;52.710;6.398;2024-02-21T03:35:16;35.22;;;8.80;;
52124;SDS011;38119;52.710;6.398;2024-02-21T03:37:42;28.75;;;8.48;;
52124;SDS011;38119;52.710;6.398;2024-02-21T03:40:09;30.42;;;7.85;;
52124;SDS011;38119;52.710;6.398;2024-02-21T03:42:35;32.38;;;8.23;;
52124;SDS011;38119;52.710;6.398;2024-02-21T03:45:02;28.80;;;8.02;;
52124;SDS011;38119;52.710;6.398;2024-02-21T03:47:28;31.95;;;9.25;;
52124;SDS011;38119;52.710;6.398;2024-02-21T03:49:54;37.60;;;8.65;;
52124;SDS011;38119;52.710;6.398;2024-02-21T03:52:20;28.73;;;8.48;;
52124;SDS011;38119;52.710;6.398;2024-02-21T03:54:45;30.70;;;8.65;;
52124;SDS011;38119;52.710;6.398;2024-02-21T03:57:11;40.58;;;9.60;;
52124;SDS011;38119;52.710;6.398;2024-02-21T03:59:36;32.25;;;8.30;;
52124;SDS011;38119;52.710;6.398;2024-02-21T04:02:05;30.50;;;8.63;;
52124;SDS011;38119;52.710;6.398;2024-02-21T04:04:33;35.17;;;8.70;;
52124;SDS011;38119;52.710;6.398;2024-02-21T04:06:59;30.25;;;8.75;;
52124;SDS011;38119;52.710;6.398;2024-02-21T04:09:25;33.95;;;8.90;;
52124;SDS011;38119;52.710;6.398;2024-02-21T04:11:51;26.42;;;8.15;;
52124;SDS011;38119;52.710;6.398;2024-02-21T04:14:16;33.60;;;9.68;;
52124;SDS011;38119;52.710;6.398;2024-02-21T04:16:42;33.83;;;8.65;;
52124;SDS011;38119;52.710;6.398;2024-02-21T04:19:08;29.73;;;8.55;;
52124;SDS011;38119;52.710;6.398;2024-02-21T04:21:34;28.17;;;8.40;;
52124;SDS011;38119;52.710;6.398;2024-02-21T04:23:59;31.02;;;8.77;;
52124;SDS011;38119;52.710;6.398;2024-02-21T04:26:26;29.85;;;8.55;;
52124;SDS011;38119;52.710;6.398;2024-02-21T04:28:52;30.15;;;8.63;;
52124;SDS011;38119;52.710;6.398;2024-02-21T04:31:18;33.35;;;9.65;;
52124;SDS011;38119;52.710;6.398;2024-02-21T04:33:43;32.88;;;9.13;;
52124;SDS011;38119;52.710;6.398;2024-02-21T04:36:09;28.58;;;8.65;;
52124;SDS011;38119;52.710;6.398;2024-02-21T04:38:35;35.80;;;9.45;;
52124;SDS011;38119;52.710;6.398;2024-02-21T04:41:00;34.17;;;7.90;;
52124;SDS011;38119;52.710;6.398;2024-02-21T04:43:26;23.92;;;7.80;;
52124;SDS011;38119;52.710;6.398;2024-02-21T04:45:51;31.83;;;8.93;;
52124;SDS011;38119;52.710;6.398;2024-02-21T04:48:18;33.45;;;9.35;;
52124;SDS011;38119;52.710;6.398;2024-02-21T04:50:46;37.53;;;9.00;;
52124;SDS011;38119;52.710;6.398;2024-02-21T04:53:11;32.53;;;8.02;;
52124;SDS011;38119;52.710;6.398;2024-02-21T04:55:37;35.17;;;8.95;;
52124;SDS011;38119;52.710;6.398;2024-02-21T04:58:03;30.77;;;7.80;;
52124;SDS011;38119;52.710;6.398;2024-02-21T05:00:28;32.70;;;7.97;;
52124;SDS011;38119;52.710;6.398;2024-02-21T05:02:54;29.80;;;8.52;;
52124;SDS011;38119;52.710;6.398;2024-02-21T05:05:20;32.38;;;7.55;;
52124;SDS011;38119;52.710;6.398;2024-02-21T05:07:45;31.48;;;8.57;;
52124;SDS011;38119;52.710;6.398;2024-02-21T05:10:11;30.30;;;8.38;;
52124;SDS011;38119;52.710;6.398;2024-02-21T05:12:37;33.92;;;8.57;;
52124;SDS011;38119;52.710;6.398;2024-02-21T05:15:03;34.33;;;7.80;;
52124;SDS011;38119;52.710;6.398;2024-02-21T05:17:29;30.27;;;8.82;;
52124;SDS011;38119;52.710;6.398;2024-02-21T05:19:54;29.02;;;7.95;;
52124;SDS011;38119;52.710;6.398;2024-02-21T05:22:20;35.53;;;8.18;;
52124;SDS011;38119;52.710;6.398;2024-02-21T05:24:45;34.05;;;7.85;;
52124;SDS011;38119;52.710;6.398;2024-02-21T05:27:11;30.58;;;8.07;;
52124;SDS011;38119;52.710;6.398;2024-02-21T05:29:36;33.42;;;8.40;;
52124;SDS011;38119;52.710;6.398;2024-02-21T05:32:02;30.45;;;8.65;;
52124;SDS011;38119;52.710;6.398;2024-02-21T05:34:28;28.90;;;7.53;;
52124;SDS011;38119;52.710;6.398;2024-02-21T05:36:53;31.95;;;8.48;;
52124;SDS011;38119;52.710;6.398;2024-02-21T05:39:19;32.53;;;7.63;;
52124;SDS011;38119;52.710;6.398;2024-02-21T05:41:47;27.13;;;7.18;;
52124;SDS011;38119;52.710;6.398;2024-02-21T05:44:13;33.38;;;8.50;;
52124;SDS011;38119;52.710;6.398;2024-02-21T05:46:39;29.52;;;8.65;;
52124;SDS011;38119;52.710;6.398;2024-02-21T05:49:04;28.58;;;8.60;;
52124;SDS011;38119;52.710;6.398;2024-02-21T05:51:33;27.08;;;9.20;;
52124;SDS011;38119;52.710;6.398;2024-02-21T05:53:59;42.75;;;9.80;;
52124;SDS011;38119;52.710;6.398;2024-02-21T05:56:25;27.10;;;8.95;;
52124;SDS011;38119;52.710;6.398;2024-02-21T05:58:51;27.70;;;10.07;;
52124;SDS011;38119;52.710;6.398;2024-02-21T06:01:17;23.77;;;9.00;;
52124;SDS011;38119;52.710;6.398;2024-02-21T06:03:43;33.72;;;10.68;;
52124;SDS011;38119;52.710;6.398;2024-02-21T06:06:09;24.58;;;9.25;;
52124;SDS011;38119;52.710;6.398;2024-02-21T06:08:34;29.15;;;9.77;;
52124;SDS011;38119;52.710;6.398;2024-02-21T06:11:00;34.90;;;10.65;;
52124;SDS011;38119;52.710;6.398;2024-02-21T06:13:26;33.92;;;10.45;;
52124;SDS011;38119;52.710;6.398;2024-02-21T06:15:52;35.85;;;11.05;;
52124;SDS011;38119;52.710;6.398;2024-02-21T06:18:18;25.10;;;11.13;;
52124;SDS011;38119;52.710;6.398;2024-02-21T06:20:45;40.40;;;11.00;;
52124;SDS011;38119;52.710;6.398;2024-02-21T06:23:14;30.75;;;11.00;;
52124;SDS011;38119;52.710;6.398;2024-02-21T06:25:41;42.45;;;11.82;;
52124;SDS011;38119;52.710;6.398;2024-02-21T06:28:07;32.97;;;11.63;;
52124;SDS011;38119;52.710;6.398;2024-02-21T06:30:33;35.08;;;11.60;;
52124;SDS011;38119;52.710;6.398;2024-02-21T06:32:59;27.30;;;12.23;;
52124;SDS011;38119;52.710;6.398;2024-02-21T06:35:24;30.33;;;12.60;;
52124;SDS011;38119;52.710;6.398;2024-02-21T06:37:53;30.17;;;11.80;;
52124;SDS011;38119;52.710;6.398;2024-02-21T06:40:20;30.63;;;11.90;;
52124;SDS011;38119;52.710;6.398;2024-02-21T06:42:47;31.25;;;13.27;;
52124;SDS011;38119;52.710;6.398;2024-02-21T06:45:12;32.80;;;12.30;;
52124;SDS011;38119;52.710;6.398;2024-02-21T06:47:38;30.52;;;12.38;;
52124;SDS011;38119;52.710;6.398;2024-02-21T06:50:04;33.75;;;12.80;;
52124;SDS011;38119;52.710;6.398;2024-02-21T06:52:30;31.30;;;13.43;;
52124;SDS011;38119;52.710;6.398;2024-02-21T06:54:56;33.40;;;13.68;;
52124;SDS011;38119;52.710;6.398;2024-02-21T06:57:22;33.55;;;14.27;;
52124;SDS011;38119;52.710;6.398;2024-02-21T06:59:47;28.73;;;13.18;;
52124;SDS011;38119;52.710;6.398;2024-02-21T07:02:13;29.48;;;13.10;;
52124;SDS011;38119;52.710;6.398;2024-02-21T07:04:39;32.63;;;12.90;;
52124;SDS011;38119;52.710;6.398;2024-02-21T07:07:04;32.03;;;13.38;;
52124;SDS011;38119;52.710;6.398;2024-02-21T07:09:30;29.90;;;13.90;;
52124;SDS011;38119;52.710;6.398;2024-02-21T07:11:59;29.52;;;13.20;;
52124;SDS011;38119;52.710;6.398;2024-02-21T07:14:25;30.95;;;13.25;;
52124;SDS011;38119;52.710;6.398;2024-02-21T07:16:51;27.05;;;13.45;;
52124;SDS011;38119;52.710;6.398;2024-02-21T07:19:16;31.13;;;13.30;;
52124;SDS011;38119;52.710;6.398;2024-02-21T07:21:42;30.52;;;14.02;;
52124;SDS011;38119;52.710;6.398;2024-02-21T07:24:08;34.55;;;13.77;;
52124;SDS011;38119;52.710;6.398;2024-02-21T07:26:34;33.28;;;13.13;;
52124;SDS011;38119;52.710;6.398;2024-02-21T07:28:59;28.65;;;13.05;;
52124;SDS011;38119;52.710;6.398;2024-02-21T07:31:25;31.27;;;13.27;;
52124;SDS011;38119;52.710;6.398;2024-02-21T07:33:51;31.88;;;13.93;;
52124;SDS011;38119;52.710;6.398;2024-02-21T07:36:25;32.13;;;13.98;;
52124;SDS011;38119;52.710;6.398;2024-02-21T07:38:55;30.95;;;13.32;;
52124;SDS011;38119;52.710;6.398;2024-02-21T07:41:21;26.05;;;13.68;;
52124;SDS011;38119;52.710;6.398;2024-02-21T07:43:46;29.45;;;14.52;;
52124;SDS011;38119;52.710;6.398;2024-02-21T07:46:13;28.60;;;14.07;;
52124;SDS011;38119;52.710;6.398;2024-02-21T07:48:39;28.95;;;13.68;;
52124;SDS011;38119;52.710;6.398;2024-02-21T07:51:04;29.25;;;14.35;;
52124;SDS011;38119;52.710;6.398;2024-02-21T07:53:30;27.38;;;14.57;;
52124;SDS011;38119;52.710;6.398;2024-02-21T07:55:56;26.77;;;14.93;;
52124;SDS011;38119;52.710;6.398;2024-02-21T07:58:21;29.42;;;15.38;;
52124;SDS011;38119;52.710;6.398;2024-02-21T08:00:47;29.48;;;15.77;;
52124;SDS011;38119;52.710;6.398;2024-02-21T08:03:13;32.38;;;16.27;;
52124;SDS011;38119;52.710;6.398;2024-02-21T08:05:40;32.17;;;17.20;;
52124;SDS011;38119;52.710;6.398;2024-02-21T08:08:06;30.27;;;17.40;;
52124;SDS011;38119;52.710;6.398;2024-02-21T08:10:33;30.08;;;17.30;;
52124;SDS011;38119;52.710;6.398;2024-02-21T08:12:59;33.80;;;17.65;;
52124;SDS011;38119;52.710;6.398;2024-02-21T08:15:24;38.30;;;17.65;;
52124;SDS011;38119;52.710;6.398;2024-02-21T08:17:54;36.33;;;16.70;;
52124;SDS011;38119;52.710;6.398;2024-02-21T08:20:24;35.53;;;17.75;;
52124;SDS011;38119;52.710;6.398;2024-02-21T08:22:50;36.60;;;17.58;;
52124;SDS011;38119;52.710;6.398;2024-02-21T08:25:15;35.80;;;17.38;;
52124;SDS011;38119;52.710;6.398;2024-02-21T08:27:41;30.90;;;17.88;;
52124;SDS011;38119;52.710;6.398;2024-02-21T08:30:06;35.85;;;17.77;;
52124;SDS011;38119;52.710;6.398;2024-02-21T08:32:33;37.50;;;18.95;;
52124;SDS011;38119;52.710;6.398;2024-02-21T08:35:01;27.52;;;17.10;;
52124;SDS011;38119;52.710;6.398;2024-02-21T08:37:29;32.85;;;17.70;;
52124;SDS011;38119;52.710;6.398;2024-02-21T08:39:55;33.38;;;17.85;;
52124;SDS011;38119;52.710;6.398;2024-02-21T08:42:20;32.80;;;17.63;;
52124;SDS011;38119;52.710;6.398;2024-02-21T08:44:46;34.42;;;19.25;;
52124;SDS011;38119;52.710;6.398;2024-02-21T08:47:11;35.55;;;18.60;;
52124;SDS011;38119;52.710;6.398;2024-02-21T08:49:37;32.58;;;19.20;;
52124;SDS011;38119;52.710;6.398;2024-02-21T08:52:03;36.80;;;19.08;;
52124;SDS011;38119;52.710;6.398;2024-02-21T08:54:30;36.53;;;18.75;;
52124;SDS011;38119;52.710;6.398;2024-02-21T08:56:57;35.60;;;20.30;;
52124;SDS011;38119;52.710;6.398;2024-02-21T08:59:23;38.40;;;19.50;;
52124;SDS011;38119;52.710;6.398;2024-02-21T09:01:50;36.47;;;20.40;;
52124;SDS011;38119;52.710;6.398;2024-02-21T09:04:17;38.03;;;19.58;;
52124;SDS011;38119;52.710;6.398;2024-02-21T09:06:43;35.97;;;20.42;;
52124;SDS011;38119;52.710;6.398;2024-02-21T09:09:10;35.35;;;18.88;;
52124;SDS011;38119;52.710;6.398;2024-02-21T09:11:35;36.75;;;21.05;;
52124;SDS011;38119;52.710;6.398;2024-02-21T09:14:01;36.25;;;19.42;;
52124;SDS011;38119;52.710;6.398;2024-02-21T09:16:29;35.63;;;20.10;;
52124;SDS011;38119;52.710;6.398;2024-02-21T09:18:58;33.67;;;19.48;;
52124;SDS011;38119;52.710;6.398;2024-02-21T09:21:24;35.15;;;19.13;;
52124;SDS011;38119;52.710;6.398;2024-02-21T09:23:49;37.20;;;20.40;;
52124;SDS011;38119;52.710;6.398;2024-02-21T09:26:15;36.85;;;19.65;;
52124;SDS011;38119;52.710;6.398;2024-02-21T09:28:42;36.15;;;19.38;;
52124;SDS011;38119;52.710;6.398;2024-02-21T09:31:09;38.33;;;19.40;;
52124;SDS011;38119;52.710;6.398;2024-02-21T09:33:34;30.70;;;19.05;;
52124;SDS011;38119;52.710;6.398;2024-02-21T09:36:00;38.40;;;19.38;;
52124;SDS011;38119;52.710;6.398;2024-02-21T09:38:26;34.30;;;18.70;;
52124;SDS011;38119;52.710;6.398;2024-02-21T09:41:04;34.17;;;18.15;;
52124;SDS011;38119;52.710;6.398;2024-02-21T09:43:40;31.17;;;17.98;;
52124;SDS011;38119;52.710;6.398;2024-02-21T09:46:07;27.80;;;17.10;;
52124;SDS011;38119;52.710;6.398;2024-02-21T09:51:38;36.53;;;17.83;;
52124;SDS011;38119;52.710;6.398;2024-02-21T09:54:07;35.30;;;18.08;;
52124;SDS011;38119;52.710;6.398;2024-02-21T09:56:32;27.67;;;15.82;;
52124;SDS011;38119;52.710;6.398;2024-02-21T09:58:58;25.48;;;15.65;;
52124;SDS011;38119;52.710;6.398;2024-02-21T10:01:28;29.65;;;15.55;;
52124;SDS011;38119;52.710;6.398;2024-02-21T10:03:54;29.33;;;14.90;;
52124;SDS011;38119;52.710;6.398;2024-02-21T10:06:19;26.25;;;14.98;;
52124;SDS011;38119;52.710;6.398;2024-02-21T10:08:51;32.35;;;14.18;;
52124;SDS011;38119;52.710;6.398;2024-02-21T10:11:24;27.75;;;13.65;;
52124;SDS011;38119;52.710;6.398;2024-02-21T10:13:50;24.90;;;13.50;;
52124;SDS011;38119;52.710;6.398;2024-02-21T10:16:16;28.58;;;13.63;;
52124;SDS011;38119;52.710;6.398;2024-02-21T10:18:41;26.67;;;13.15;;
52124;SDS011;38119;52.710;6.398;2024-02-21T10:21:07;28.75;;;13.48;;
52124;SDS011;38119;52.710;6.398;2024-02-21T10:23:43;30.23;;;13.02;;
52124;SDS011;38119;52.710;6.398;2024-02-21T10:26:09;25.17;;;12.20;;
52124;SDS011;38119;52.710;6.398;2024-02-21T10:28:36;23.13;;;12.73;;
52124;SDS011;38119;52.710;6.398;2024-02-21T10:31:06;22.25;;;12.05;;
52124;SDS011;38119;52.710;6.398;2024-02-21T10:33:33;23.50;;;12.85;;
52124;SDS011;38119;52.710;6.398;2024-02-21T10:36:08;22.55;;;12.20;;
52124;SDS011;38119;52.710;6.398;2024-02-21T10:38:38;26.63;;;12.10;;
52124;SDS011;38119;52.710;6.398;2024-02-21T10:41:04;24.75;;;12.25;;
52124;SDS011;38119;52.710;6.398;2024-02-21T10:43:33;27.98;;;10.95;;
52124;SDS011;38119;52.710;6.398;2024-02-21T10:46:05;23.67;;;11.45;;
52124;SDS011;38119;52.710;6.398;2024-02-21T10:48:44;22.45;;;11.63;;
52124;SDS011;38119;52.710;6.398;2024-02-21T10:51:17;22.75;;;10.93;;
52124;SDS011;38119;52.710;6.398;2024-02-21T10:56:33;22.27;;;10.45;;
52124;SDS011;38119;52.710;6.398;2024-02-21T10:59:02;22.25;;;10.55;;
52124;SDS011;38119;52.710;6.398;2024-02-21T11:01:29;19.73;;;11.02;;
52124;SDS011;38119;52.710;6.398;2024-02-21T11:04:04;17.00;;;10.35;;
52124;SDS011;38119;52.710;6.398;2024-02-21T11:06:31;19.50;;;10.48;;
52124;SDS011;38119;52.710;6.398;2024-02-21T11:09:08;18.48;;;9.45;;
52124;SDS011;38119;52.710;6.398;2024-02-21T11:11:35;21.25;;;10.88;;
52124;SDS011;38119;52.710;6.398;2024-02-21T11:14:08;19.10;;;10.25;;
52124;SDS011;38119;52.710;6.398;2024-02-21T11:16:41;18.48;;;10.70;;
52124;SDS011;38119;52.710;6.398;2024-02-21T11:19:23;20.88;;;10.48;;
52124;SDS011;38119;52.710;6.398;2024-02-21T11:21:51;19.42;;;9.95;;
52124;SDS011;38119;52.710;6.398;2024-02-21T11:26:53;18.88;;;10.27;;
52124;SDS011;38119;52.710;6.398;2024-02-21T11:29:23;19.80;;;10.48;;
52124;SDS011;38119;52.710;6.398;2024-02-21T11:31:52;17.70;;;10.63;;
52124;SDS011;38119;52.710;6.398;2024-02-21T11:34:19;16.70;;;9.57;;
52124;SDS011;38119;52.710;6.398;2024-02-21T11:36:51;20.45;;;10.35;;
52124;SDS011;38119;52.710;6.398;2024-02-21T11:39:18;20.92;;;9.20;;
52124;SDS011;38119;52.710;6.398;2024-02-21T11:41:45;19.65;;;10.35;;
52124;SDS011;38119;52.710;6.398;2024-02-21T11:44:11;16.90;;;9.25;;
52124;SDS011;38119;52.710;6.398;2024-02-21T11:46:37;20.10;;;9.15;;
52124;SDS011;38119;52.710;6.398;2024-02-21T11:49:03;17.35;;;9.43;;
52124;SDS011;38119;52.710;6.398;2024-02-21T11:51:29;18.30;;;9.68;;
52124;SDS011;38119;52.710;6.398;2024-02-21T11:53:55;16.83;;;9.70;;
52124;SDS011;38119;52.710;6.398;2024-02-21T11:56:20;17.30;;;9.13;;
52124;SDS011;38119;52.710;6.398;2024-02-21T11:58:48;16.80;;;9.38;;
52124;SDS011;38119;52.710;6.398;2024-02-21T12:01:14;15.63;;;8.93;;
52124;SDS011;38119;52.710;6.398;2024-02-21T12:03:40;15.30;;;7.93;;
52124;SDS011;38119;52.710;6.398;2024-02-21T12:06:06;13.30;;;8.52;;
52124;SDS011;38119;52.710;6.398;2024-02-21T12:08:42;15.52;;;8.90;;
52124;SDS011;38119;52.710;6.398;2024-02-21T12:11:21;16.05;;;8.15;;
52124;SDS011;38119;52.710;6.398;2024-02-21T12:13:57;18.75;;;8.60;;
52124;SDS011;38119;52.710;6.398;2024-02-21T12:16:33;17.02;;;8.52;;
52124;SDS011;38119;52.710;6.398;2024-02-21T12:18:59;14.15;;;8.40;;
52124;SDS011;38119;52.710;6.398;2024-02-21T12:21:29;13.10;;;7.53;;
52124;SDS011;38119;52.710;6.398;2024-02-21T12:23:57;14.88;;;8.05;;
52124;SDS011;38119;52.710;6.398;2024-02-21T12:26:24;15.68;;;8.20;;
52124;SDS011;38119;52.710;6.398;2024-02-21T12:28:50;13.00;;;7.75;;
52124;SDS011;38119;52.710;6.398;2024-02-21T12:31:16;11.32;;;7.13;;
52124;SDS011;38119;52.710;6.398;2024-02-21T12:33:42;15.38;;;7.30;;
52124;SDS011;38119;52.710;6.398;2024-02-21T12:36:08;12.75;;;7.10;;
52124;SDS011;38119;52.710;6.398;2024-02-21T12:38:35;13.95;;;6.72;;
52124;SDS011;38119;52.710;6.398;2024-02-21T12:41:01;12.52;;;7.05;;
52124;SDS011;38119;52.710;6.398;2024-02-21T12:43:27;11.32;;;6.85;;
52124;SDS011;38119;52.710;6.398;2024-02-21T12:45:52;12.52;;;6.95;;
52124;SDS011;38119;52.710;6.398;2024-02-21T12:48:18;11.57;;;6.72;;
52124;SDS011;38119;52.710;6.398;2024-02-21T12:50:50;12.23;;;6.55;;
52124;SDS011;38119;52.710;6.398;2024-02-21T12:55:49;10.43;;;6.63;;
52124;SDS011;38119;52.710;6.398;2024-02-21T12:58:15;11.73;;;6.65;;
52124;SDS011;38119;52.710;6.398;2024-02-21T13:00:41;13.32;;;6.68;;
52124;SDS011;38119;52.710;6.398;2024-02-21T13:03:07;10.95;;;6.53;;
52124;SDS011;38119;52.710;6.398;2024-02-21T13:05:35;11.57;;;6.88;;
52124;SDS011;38119;52.710;6.398;2024-02-21T13:08:01;11.13;;;7.15;;
52124;SDS011;38119;52.710;6.398;2024-02-21T13:10:27;10.40;;;6.57;;
52124;SDS011;38119;52.710;6.398;2024-02-21T13:12:53;12.07;;;6.95;;
52124;SDS011;38119;52.710;6.398;2024-02-21T13:15:19;13.55;;;7.00;;
52124;SDS011;38119;52.710;6.398;2024-02-21T13:17:45;12.90;;;7.45;;
52124;SDS011;38119;52.710;6.398;2024-02-21T13:20:11;10.73;;;6.80;;
52124;SDS011;38119;52.710;6.398;2024-02-21T13:22:37;12.52;;;7.63;;
52124;SDS011;38119;52.710;6.398;2024-02-21T13:25:03;14.15;;;7.70;;
52124;SDS011;38119;52.710;6.398;2024-02-21T13:27:30;11.18;;;7.63;;
52124;SDS011;38119;52.710;6.398;2024-02-21T13:29:55;17.15;;;7.63;;
52124;SDS011;38119;52.710;6.398;2024-02-21T13:32:21;12.13;;;7.47;;
52124;SDS011;38119;52.710;6.398;2024-02-21T13:34:47;14.02;;;7.35;;
52124;SDS011;38119;52.710;6.398;2024-02-21T13:37:13;12.35;;;6.88;;
52124;SDS011;38119;52.710;6.398;2024-02-21T13:39:40;17.05;;;7.05;;
52124;SDS011;38119;52.710;6.398;2024-02-21T13:42:05;14.45;;;7.53;;
52124;SDS011;38119;52.710;6.398;2024-02-21T13:44:31;14.18;;;7.75;;
52124;SDS011;38119;52.710;6.398;2024-02-21T13:46:57;16.50;;;7.35;;
52124;SDS011;38119;52.710;6.398;2024-02-21T13:49:23;15.13;;;8.23;;
52124;SDS011;38119;52.710;6.398;2024-02-21T13:51:49;16.75;;;7.68;;
52124;SDS011;38119;52.710;6.398;2024-02-21T13:54:25;13.68;;;7.20;;
52124;SDS011;38119;52.710;6.398;2024-02-21T13:57:09;17.35;;;7.20;;
52124;SDS011;38119;52.710;6.398;2024-02-21T13:59:35;13.55;;;7.88;;
52124;SDS011;38119;52.710;6.398;2024-02-21T14:02:00;14.20;;;6.90;;
52124;SDS011;38119;52.710;6.398;2024-02-21T14:04:26;17.38;;;7.43;;
52124;SDS011;38119;52.710;6.398;2024-02-21T14:06:52;13.20;;;7.30;;
52124;SDS011;38119;52.710;6.398;2024-02-21T14:09:18;16.08;;;7.22;;
52124;SDS011;38119;52.710;6.398;2024-02-21T14:11:44;13.45;;;7.38;;
52124;SDS011;38119;52.710;6.398;2024-02-21T14:14:10;14.13;;;7.40;;
52124;SDS011;38119;52.710;6.398;2024-02-21T14:16:36;11.55;;;6.70;;
52124;SDS011;38119;52.710;6.398;2024-02-21T14:19:02;11.27;;;6.38;;
52124;SDS011;38119;52.710;6.398;2024-02-21T14:21:27;12.65;;;6.95;;
52124;SDS011;38119;52.710;6.398;2024-02-21T14:23:54;14.20;;;6.95;;
52124;SDS011;38119;52.710;6.398;2024-02-21T14:26:19;12.63;;;7.05;;
52124;SDS011;38119;52.710;6.398;2024-02-21T14:28:46;12.95;;;7.28;;
52124;SDS011;38119;52.710;6.398;2024-02-21T14:31:12;15.65;;;7.35;;
52124;SDS011;38119;52.710;6.398;2024-02-21T14:33:38;15.68;;;7.28;;
52124;SDS011;38119;52.710;6.398;2024-02-21T14:36:04;13.65;;;7.03;;
52124;SDS011;38119;52.710;6.398;2024-02-21T14:38:30;14.27;;;6.95;;